sensor_id;sensor_type;location;lat;lon;timestamp;temperature;humidity
12254;DHT22;6189;52.526;13.390;2023-04-24T00:00:33;15.30;99.90
12254;DHT22;6189;52.526;13.390;2023-04-24T00:03:18;15.20;99.90
12254;DHT22;6189;52.526;13.390;2023-04-24T00:06:05;15.30;99.90
12254;DHT22;6189;52.526;13.390;2023-04-24T00:08:52;15.30;99.90
12254;DHT22;6189;52.526;13.390;2023-04-24T00:11:39;15.50;99.90
12254;DHT22;6189;52.526;13.390;2023-04-24T00:14:31;15.40;99.90
12254;DHT22;6189;52.526;13.390;2023-04-24T00:17:17;15.50;99.90
12254;DHT22;6189;52.526;13.390;2023-04-24T00:20:05;15.20;99.90
12254;DHT22;6189;52.526;13.390;2023-04-24T00:22:51;15.30;99.90
12254;DHT22;6189;52.526;13.390;2023-04-24T00:25:37;15.30;99.90
12254;DHT22;6189;52.526;13.390;2023-04-24T00:28:25;15.30;99.90
12254;DHT22;6189;52.526;13.390;2023-04-24T00:31:11;15.40;99.90
12254;DHT22;6189;52.526;13.390;2023-04-24T00:34:04;15.70;99.90
12254;DHT22;6189;52.526;13.390;2023-04-24T00:36:50;16.00;99.90
12254;DHT22;6189;52.526;13.390;2023-04-24T00:39:36;16.00;99.90
12254;DHT22;6189;52.526;13.390;2023-04-24T00:42:22;15.80;99.90
12254;DHT22;6189;52.526;13.390;2023-04-24T00:45:10;15.70;99.90
12254;DHT22;6189;52.526;13.390;2023-04-24T00:47:56;15.70;99.90
12254;DHT22;6189;52.526;13.390;2023-04-24T00:50:42;15.60;99.90
12254;DHT22;6189;52.526;13.390;2023-04-24T00:53:27;15.40;99.90
12254;DHT22;6189;52.526;13.390;2023-04-24T00:56:13;15.10;99.90
12254;DHT22;6189;52.526;13.390;2023-04-24T00:58:59;15.00;99.90
12254;DHT22;6189;52.526;13.390;2023-04-24T01:01:46;15.10;99.90
12254;DHT22;6189;52.526;13.390;2023-04-24T01:04:32;15.20;99.90
12254;DHT22;6189;52.526;13.390;2023-04-24T01:07:19;15.20;99.90
12254;DHT22;6189;52.526;13.390;2023-04-24T01:10:07;15.50;99.90
12254;DHT22;6189;52.526;13.390;2023-04-24T01:12:54;15.30;99.90
12254;DHT22;6189;52.526;13.390;2023-04-24T01:15:39;15.50;99.90
12254;DHT22;6189;52.526;13.390;2023-04-24T01:18:27;15.50;99.90
12254;DHT22;6189;52.526;13.390;2023-04-24T01:21:14;15.80;99.90
12254;DHT22;6189;52.526;13.390;2023-04-24T01:24:02;15.90;99.90
12254;DHT22;6189;52.526;13.390;2023-04-24T01:26:48;16.00;99.90
12254;DHT22;6189;52.526;13.390;2023-04-24T01:29:34;16.00;99.90
12254;DHT22;6189;52.526;13.390;2023-04-24T01:32:20;16.00;99.90
12254;DHT22;6189;52.526;13.390;2023-04-24T01:35:07;16.00;99.90
12254;DHT22;6189;52.526;13.390;2023-04-24T01:37:56;16.00;99.90
12254;DHT22;6189;52.526;13.390;2023-04-24T01:40:43;16.10;99.90
12254;DHT22;6189;52.526;13.390;2023-04-24T01:43:29;15.80;99.90
12254;DHT22;6189;52.526;13.390;2023-04-24T01:46:16;15.80;99.90
12254;DHT22;6189;52.526;13.390;2023-04-24T01:49:02;15.70;99.90
12254;DHT22;6189;52.526;13.390;2023-04-24T01:51:47;15.60;99.90
12254;DHT22;6189;52.526;13.390;2023-04-24T01:54:33;15.50;99.90
12254;DHT22;6189;52.526;13.390;2023-04-24T01:57:20;15.60;99.90
12254;DHT22;6189;52.526;13.390;2023-04-24T02:00:06;15.70;99.90
12254;DHT22;6189;52.526;13.390;2023-04-24T02:02:52;15.70;99.90
12254;DHT22;6189;52.526;13.390;2023-04-24T02:05:38;15.70;99.90
12254;DHT22;6189;52.526;13.390;2023-04-24T02:08:24;15.70;99.90
12254;DHT22;6189;52.526;13.390;2023-04-24T02:11:10;15.70;99.90
12254;DHT22;6189;52.526;13.390;2023-04-24T02:13:57;15.90;99.90
12254;DHT22;6189;52.526;13.390;2023-04-24T02:16:43;16.10;99.90
12254;DHT22;6189;52.526;13.390;2023-04-24T02:19:29;16.20;99.90
12254;DHT22;6189;52.526;13.390;2023-04-24T02:22:15;16.30;99.90
12254;DHT22;6189;52.526;13.390;2023-04-24T02:25:01;16.00;99.90
12254;DHT22;6189;52.526;13.390;2023-04-24T02:27:46;16.20;99.90
12254;DHT22;6189;52.526;13.390;2023-04-24T02:30:33;16.30;99.90
12254;DHT22;6189;52.526;13.390;2023-04-24T02:33:19;16.20;99.90
12254;DHT22;6189;52.526;13.390;2023-04-24T02:36:05;16.20;99.90
12254;DHT22;6189;52.526;13.390;2023-04-24T02:38:51;16.00;99.90
12254;DHT22;6189;52.526;13.390;2023-04-24T02:41:36;16.00;99.90
12254;DHT22;6189;52.526;13.390;2023-04-24T02:44:22;16.10;99.90
12254;DHT22;6189;52.526;13.390;2023-04-24T02:47:09;16.10;99.90
12254;DHT22;6189;52.526;13.390;2023-04-24T02:49:55;16.00;99.90
12254;DHT22;6189;52.526;13.390;2023-04-24T02:52:40;16.20;99.90
12254;DHT22;6189;52.526;13.390;2023-04-24T02:55:26;16.10;99.90
12254;DHT22;6189;52.526;13.390;2023-04-24T02:58:12;16.00;99.90
12254;DHT22;6189;52.526;13.390;2023-04-24T03:00:58;16.10;99.90
12254;DHT22;6189;52.526;13.390;2023-04-24T03:03:45;15.70;99.90
12254;DHT22;6189;52.526;13.390;2023-04-24T03:06:31;15.70;99.90
12254;DHT22;6189;52.526;13.390;2023-04-24T03:09:17;15.80;99.90
12254;DHT22;6189;52.526;13.390;2023-04-24T03:12:02;15.90;99.90
12254;DHT22;6189;52.526;13.390;2023-04-24T03:14:48;15.80;99.90
12254;DHT22;6189;52.526;13.390;2023-04-24T03:17:34;15.70;99.90
12254;DHT22;6189;52.526;13.390;2023-04-24T03:20:21;15.50;99.90
12254;DHT22;6189;52.526;13.390;2023-04-24T03:23:07;15.50;99.90
12254;DHT22;6189;52.526;13.390;2023-04-24T03:25:52;15.40;99.90
12254;DHT22;6189;52.526;13.390;2023-04-24T03:28:38;15.70;99.90
12254;DHT22;6189;52.526;13.390;2023-04-24T03:31:25;15.80;99.90
12254;DHT22;6189;52.526;13.390;2023-04-24T03:34:10;15.80;99.90
12254;DHT22;6189;52.526;13.390;2023-04-24T03:36:57;15.90;99.90
12254;DHT22;6189;52.526;13.390;2023-04-24T03:39:43;15.90;99.90
12254;DHT22;6189;52.526;13.390;2023-04-24T03:42:29;15.60;99.90
12254;DHT22;6189;52.526;13.390;2023-04-24T03:45:14;15.60;99.90
12254;DHT22;6189;52.526;13.390;2023-04-24T03:48:00;15.50;99.90
12254;DHT22;6189;52.526;13.390;2023-04-24T03:50:46;15.40;99.90
12254;DHT22;6189;52.526;13.390;2023-04-24T03:53:33;15.40;99.90
12254;DHT22;6189;52.526;13.390;2023-04-24T03:56:19;15.40;99.90
12254;DHT22;6189;52.526;13.390;2023-04-24T03:59:05;15.50;99.90
12254;DHT22;6189;52.526;13.390;2023-04-24T04:01:51;15.30;99.90
12254;DHT22;6189;52.526;13.390;2023-04-24T04:04:37;15.50;99.90
12254;DHT22;6189;52.526;13.390;2023-04-24T04:07:22;15.60;99.90
12254;DHT22;6189;52.526;13.390;2023-04-24T04:10:10;15.60;99.90
12254;DHT22;6189;52.526;13.390;2023-04-24T04:12:56;15.70;99.90
12254;DHT22;6189;52.526;13.390;2023-04-24T04:15:41;15.90;99.90
12254;DHT22;6189;52.526;13.390;2023-04-24T04:18:27;15.90;99.90
12254;DHT22;6189;52.526;13.390;2023-04-24T04:21:13;15.90;99.90
12254;DHT22;6189;52.526;13.390;2023-04-24T04:23:59;15.80;99.90
12254;DHT22;6189;52.526;13.390;2023-04-24T04:26:46;15.70;99.90
12254;DHT22;6189;52.526;13.390;2023-04-24T04:29:35;15.90;99.90
12254;DHT22;6189;52.526;13.390;2023-04-24T04:32:20;15.70;99.90
12254;DHT22;6189;52.526;13.390;2023-04-24T04:35:06;15.80;99.90
12254;DHT22;6189;52.526;13.390;2023-04-24T04:37:53;15.90;99.90
12254;DHT22;6189;52.526;13.390;2023-04-24T04:40:40;15.90;99.90
12254;DHT22;6189;52.526;13.390;2023-04-24T04:43:27;15.70;99.90
12254;DHT22;6189;52.526;13.390;2023-04-24T04:46:13;15.60;99.90
12254;DHT22;6189;52.526;13.390;2023-04-24T04:48:59;15.60;99.90
12254;DHT22;6189;52.526;13.390;2023-04-24T04:51:45;15.60;99.90
12254;DHT22;6189;52.526;13.390;2023-04-24T04:54:31;15.60;99.90
12254;DHT22;6189;52.526;13.390;2023-04-24T04:57:17;15.50;99.90
12254;DHT22;6189;52.526;13.390;2023-04-24T05:00:05;15.40;99.90
12254;DHT22;6189;52.526;13.390;2023-04-24T05:02:54;15.40;99.90
12254;DHT22;6189;52.526;13.390;2023-04-24T05:05:40;15.40;99.90
12254;DHT22;6189;52.526;13.390;2023-04-24T05:08:26;15.50;99.90
12254;DHT22;6189;52.526;13.390;2023-04-24T05:11:11;15.60;99.90
12254;DHT22;6189;52.526;13.390;2023-04-24T05:13:57;15.60;99.90
12254;DHT22;6189;52.526;13.390;2023-04-24T05:16:44;15.60;99.90
12254;DHT22;6189;52.526;13.390;2023-04-24T05:19:31;15.50;99.90
12254;DHT22;6189;52.526;13.390;2023-04-24T05:22:20;15.40;99.90
12254;DHT22;6189;52.526;13.390;2023-04-24T05:25:07;15.40;99.90
12254;DHT22;6189;52.526;13.390;2023-04-24T05:27:52;15.40;99.90
12254;DHT22;6189;52.526;13.390;2023-04-24T05:30:38;15.30;99.90
12254;DHT22;6189;52.526;13.390;2023-04-24T05:33:25;15.30;99.90
12254;DHT22;6189;52.526;13.390;2023-04-24T05:36:11;15.30;99.90
12254;DHT22;6189;52.526;13.390;2023-04-24T05:38:56;15.40;99.90
12254;DHT22;6189;52.526;13.390;2023-04-24T05:41:42;15.50;99.90
12254;DHT22;6189;52.526;13.390;2023-04-24T05:44:28;15.50;99.90
12254;DHT22;6189;52.526;13.390;2023-04-24T05:47:14;15.50;99.90
12254;DHT22;6189;52.526;13.390;2023-04-24T05:50:01;15.50;99.90
12254;DHT22;6189;52.526;13.390;2023-04-24T05:52:46;15.40;99.90
12254;DHT22;6189;52.526;13.390;2023-04-24T05:55:32;15.60;99.90
12254;DHT22;6189;52.526;13.390;2023-04-24T05:58:18;15.70;99.90
12254;DHT22;6189;52.526;13.390;2023-04-24T06:01:04;15.70;99.90
12254;DHT22;6189;52.526;13.390;2023-04-24T06:03:49;15.60;99.90
12254;DHT22;6189;52.526;13.390;2023-04-24T06:06:36;15.90;99.90
12254;DHT22;6189;52.526;13.390;2023-04-24T06:09:22;15.80;99.90
12254;DHT22;6189;52.526;13.390;2023-04-24T06:12:10;15.70;99.90
12254;DHT22;6189;52.526;13.390;2023-04-24T06:15:10;15.90;99.90
12254;DHT22;6189;52.526;13.390;2023-04-24T06:17:56;16.00;99.90
12254;DHT22;6189;52.526;13.390;2023-04-24T06:20:42;16.00;99.90
12254;DHT22;6189;52.526;13.390;2023-04-24T06:23:30;16.10;99.90
12254;DHT22;6189;52.526;13.390;2023-04-24T06:26:17;16.00;99.90
12254;DHT22;6189;52.526;13.390;2023-04-24T06:29:02;15.90;99.90
12254;DHT22;6189;52.526;13.390;2023-04-24T06:31:48;16.00;99.90
12254;DHT22;6189;52.526;13.390;2023-04-24T06:34:34;16.00;99.90
12254;DHT22;6189;52.526;13.390;2023-04-24T06:37:20;16.10;99.90
12254;DHT22;6189;52.526;13.390;2023-04-24T06:40:09;16.00;99.90
12254;DHT22;6189;52.526;13.390;2023-04-24T06:42:55;16.00;99.90
12254;DHT22;6189;52.526;13.390;2023-04-24T06:45:42;16.20;99.90
12254;DHT22;6189;52.526;13.390;2023-04-24T06:48:28;16.30;99.90
12254;DHT22;6189;52.526;13.390;2023-04-24T06:51:14;16.40;99.90
12254;DHT22;6189;52.526;13.390;2023-04-24T06:54:00;16.60;99.90
12254;DHT22;6189;52.526;13.390;2023-04-24T06:56:47;16.90;99.90
12254;DHT22;6189;52.526;13.390;2023-04-24T06:59:33;16.80;99.90
12254;DHT22;6189;52.526;13.390;2023-04-24T07:02:19;16.80;99.90
12254;DHT22;6189;52.526;13.390;2023-04-24T07:05:05;17.00;99.90
12254;DHT22;6189;52.526;13.390;2023-04-24T07:07:52;17.10;99.90
12254;DHT22;6189;52.526;13.390;2023-04-24T07:10:38;17.10;99.90
12254;DHT22;6189;52.526;13.390;2023-04-24T07:13:25;17.00;99.90
12254;DHT22;6189;52.526;13.390;2023-04-24T07:16:11;16.90;99.90
12254;DHT22;6189;52.526;13.390;2023-04-24T07:18:57;16.90;99.90
12254;DHT22;6189;52.526;13.390;2023-04-24T07:21:42;17.10;99.90
12254;DHT22;6189;52.526;13.390;2023-04-24T07:24:28;17.20;99.90
12254;DHT22;6189;52.526;13.390;2023-04-24T07:27:16;17.20;99.90
12254;DHT22;6189;52.526;13.390;2023-04-24T07:30:04;17.30;99.90
12254;DHT22;6189;52.526;13.390;2023-04-24T07:32:50;17.20;99.90
12254;DHT22;6189;52.526;13.390;2023-04-24T07:35:35;17.10;99.90
12254;DHT22;6189;52.526;13.390;2023-04-24T07:38:21;17.10;99.90
12254;DHT22;6189;52.526;13.390;2023-04-24T07:41:07;17.10;99.90
12254;DHT22;6189;52.526;13.390;2023-04-24T07:43:52;17.10;99.90
12254;DHT22;6189;52.526;13.390;2023-04-24T07:46:40;17.30;99.90
12254;DHT22;6189;52.526;13.390;2023-04-24T07:49:26;17.30;99.90
12254;DHT22;6189;52.526;13.390;2023-04-24T07:52:11;17.50;99.90
12254;DHT22;6189;52.526;13.390;2023-04-24T07:54:57;17.40;99.90
12254;DHT22;6189;52.526;13.390;2023-04-24T07:57:44;17.60;99.90
12254;DHT22;6189;52.526;13.390;2023-04-24T08:00:30;17.40;99.90
12254;DHT22;6189;52.526;13.390;2023-04-24T08:03:17;17.60;99.90
12254;DHT22;6189;52.526;13.390;2023-04-24T08:06:04;17.50;99.90
12254;DHT22;6189;52.526;13.390;2023-04-24T08:08:50;17.60;99.90
12254;DHT22;6189;52.526;13.390;2023-04-24T08:11:35;17.70;99.90
12254;DHT22;6189;52.526;13.390;2023-04-24T08:14:21;17.60;99.90
12254;DHT22;6189;52.526;13.390;2023-04-24T08:17:07;17.80;99.90
12254;DHT22;6189;52.526;13.390;2023-04-24T08:19:54;17.80;99.90
12254;DHT22;6189;52.526;13.390;2023-04-24T08:22:45;17.70;99.90
12254;DHT22;6189;52.526;13.390;2023-04-24T08:25:33;18.00;99.90
12254;DHT22;6189;52.526;13.390;2023-04-24T08:28:19;17.90;99.90
12254;DHT22;6189;52.526;13.390;2023-04-24T08:31:05;18.10;99.00
12254;DHT22;6189;52.526;13.390;2023-04-24T08:33:51;18.10;98.50
12254;DHT22;6189;52.526;13.390;2023-04-24T08:36:38;18.10;98.40
12254;DHT22;6189;52.526;13.390;2023-04-24T08:39:24;18.00;97.80
12254;DHT22;6189;52.526;13.390;2023-04-24T08:42:11;18.10;98.10
12254;DHT22;6189;52.526;13.390;2023-04-24T08:44:58;18.30;98.10
12254;DHT22;6189;52.526;13.390;2023-04-24T08:47:43;18.30;97.80
12254;DHT22;6189;52.526;13.390;2023-04-24T08:50:29;18.40;97.40
12254;DHT22;6189;52.526;13.390;2023-04-24T08:53:17;18.30;96.70
12254;DHT22;6189;52.526;13.390;2023-04-24T08:56:03;18.30;96.60
12254;DHT22;6189;52.526;13.390;2023-04-24T08:58:50;18.40;96.50
12254;DHT22;6189;52.526;13.390;2023-04-24T09:01:37;18.60;96.20
12254;DHT22;6189;52.526;13.390;2023-04-24T09:04:24;18.50;96.10
12254;DHT22;6189;52.526;13.390;2023-04-24T09:07:10;18.50;96.10
12254;DHT22;6189;52.526;13.390;2023-04-24T09:09:59;18.40;94.80
12254;DHT22;6189;52.526;13.390;2023-04-24T09:12:46;18.40;95.30
12254;DHT22;6189;52.526;13.390;2023-04-24T09:15:32;18.30;95.30
12254;DHT22;6189;52.526;13.390;2023-04-24T09:18:18;18.50;95.20
12254;DHT22;6189;52.526;13.390;2023-04-24T09:21:07;18.60;94.90
12254;DHT22;6189;52.526;13.390;2023-04-24T09:24:00;18.60;95.10
12254;DHT22;6189;52.526;13.390;2023-04-24T09:26:48;18.70;95.70
12254;DHT22;6189;52.526;13.390;2023-04-24T09:29:34;18.60;96.30
12254;DHT22;6189;52.526;13.390;2023-04-24T09:32:21;18.80;96.10
12254;DHT22;6189;52.526;13.390;2023-04-24T09:35:11;18.60;96.20
12254;DHT22;6189;52.526;13.390;2023-04-24T09:37:59;18.40;97.10
12254;DHT22;6189;52.526;13.390;2023-04-24T09:40:45;18.50;97.20
12254;DHT22;6189;52.526;13.390;2023-04-24T09:43:32;18.60;97.90
12254;DHT22;6189;52.526;13.390;2023-04-24T09:46:18;18.40;98.50
12254;DHT22;6189;52.526;13.390;2023-04-24T09:49:08;18.10;99.00
12254;DHT22;6189;52.526;13.390;2023-04-24T09:52:03;18.30;99.50
12254;DHT22;6189;52.526;13.390;2023-04-24T09:54:53;18.40;99.40
12254;DHT22;6189;52.526;13.390;2023-04-24T09:57:47;18.40;99.50
12254;DHT22;6189;52.526;13.390;2023-04-24T10:00:34;18.50;99.20
12254;DHT22;6189;52.526;13.390;2023-04-24T10:03:20;18.80;99.30
12254;DHT22;6189;52.526;13.390;2023-04-24T10:06:06;18.80;98.80
12254;DHT22;6189;52.526;13.390;2023-04-24T10:08:53;18.70;98.50
12254;DHT22;6189;52.526;13.390;2023-04-24T10:11:45;18.90;98.00
12254;DHT22;6189;52.526;13.390;2023-04-24T10:14:31;19.10;97.90
12254;DHT22;6189;52.526;13.390;2023-04-24T10:17:19;19.50;97.10
12254;DHT22;6189;52.526;13.390;2023-04-24T10:20:06;19.60;96.50
12254;DHT22;6189;52.526;13.390;2023-04-24T10:22:53;19.70;96.30
12254;DHT22;6189;52.526;13.390;2023-04-24T10:25:39;20.00;96.10
12254;DHT22;6189;52.526;13.390;2023-04-24T10:28:24;20.50;96.30
12254;DHT22;6189;52.526;13.390;2023-04-24T10:31:12;20.70;94.70
12254;DHT22;6189;52.526;13.390;2023-04-24T10:34:01;20.60;94.60
12254;DHT22;6189;52.526;13.390;2023-04-24T10:36:50;20.70;94.30
12254;DHT22;6189;52.526;13.390;2023-04-24T10:39:36;20.60;93.30
12254;DHT22;6189;52.526;13.390;2023-04-24T10:42:24;20.30;93.90
12254;DHT22;6189;52.526;13.390;2023-04-24T10:45:17;20.20;93.00
12254;DHT22;6189;52.526;13.390;2023-04-24T10:48:05;19.90;93.80
12254;DHT22;6189;52.526;13.390;2023-04-24T10:50:56;19.60;94.20
12254;DHT22;6189;52.526;13.390;2023-04-24T10:53:41;19.30;94.80
12254;DHT22;6189;52.526;13.390;2023-04-24T10:56:27;19.40;95.10
12254;DHT22;6189;52.526;13.390;2023-04-24T10:59:24;19.40;94.90
12254;DHT22;6189;52.526;13.390;2023-04-24T11:02:10;19.30;94.80
12254;DHT22;6189;52.526;13.390;2023-04-24T11:04:55;19.10;94.80
12254;DHT22;6189;52.526;13.390;2023-04-24T11:08:11;19.30;95.00
12254;DHT22;6189;52.526;13.390;2023-04-24T11:11:02;19.50;94.40
12254;DHT22;6189;52.526;13.390;2023-04-24T11:14:02;19.30;94.70
12254;DHT22;6189;52.526;13.390;2023-04-24T11:16:52;19.20;94.50
12254;DHT22;6189;52.526;13.390;2023-04-24T11:19:39;19.30;94.90
12254;DHT22;6189;52.526;13.390;2023-04-24T11:22:25;19.50;95.10
12254;DHT22;6189;52.526;13.390;2023-04-24T11:25:15;19.80;94.30
12254;DHT22;6189;52.526;13.390;2023-04-24T11:28:05;19.90;93.10
12254;DHT22;6189;52.526;13.390;2023-04-24T11:30:51;19.70;93.80
12254;DHT22;6189;52.526;13.390;2023-04-24T11:33:37;19.60;93.50
12254;DHT22;6189;52.526;13.390;2023-04-24T11:36:23;19.50;93.90
12254;DHT22;6189;52.526;13.390;2023-04-24T11:39:09;19.40;94.10
12254;DHT22;6189;52.526;13.390;2023-04-24T11:42:03;19.20;94.50
12254;DHT22;6189;52.526;13.390;2023-04-24T11:44:52;19.40;93.90
12254;DHT22;6189;52.526;13.390;2023-04-24T11:47:38;19.20;94.90
12254;DHT22;6189;52.526;13.390;2023-04-24T11:50:26;19.00;95.30
12254;DHT22;6189;52.526;13.390;2023-04-24T11:53:13;19.00;95.30
12254;DHT22;6189;52.526;13.390;2023-04-24T11:56:02;18.80;95.10
12254;DHT22;6189;52.526;13.390;2023-04-24T11:58:52;19.00;96.00
12254;DHT22;6189;52.526;13.390;2023-04-24T12:01:43;19.20;96.40
12254;DHT22;6189;52.526;13.390;2023-04-24T12:04:38;19.40;96.70
12254;DHT22;6189;52.526;13.390;2023-04-24T12:07:24;19.80;96.70
12254;DHT22;6189;52.526;13.390;2023-04-24T12:10:10;20.00;96.80
12254;DHT22;6189;52.526;13.390;2023-04-24T12:12:57;20.30;96.00
12254;DHT22;6189;52.526;13.390;2023-04-24T12:15:44;20.30;95.50
12254;DHT22;6189;52.526;13.390;2023-04-24T12:18:29;20.40;95.60
12254;DHT22;6189;52.526;13.390;2023-04-24T12:21:16;20.30;94.90
12254;DHT22;6189;52.526;13.390;2023-04-24T12:24:06;20.00;95.10
12254;DHT22;6189;52.526;13.390;2023-04-24T12:26:52;19.80;95.50
12254;DHT22;6189;52.526;13.390;2023-04-24T12:29:51;19.70;96.20
12254;DHT22;6189;52.526;13.390;2023-04-24T12:32:42;19.70;95.90
12254;DHT22;6189;52.526;13.390;2023-04-24T12:35:30;19.80;95.80
12254;DHT22;6189;52.526;13.390;2023-04-24T12:38:22;20.00;95.10
12254;DHT22;6189;52.526;13.390;2023-04-24T12:41:09;20.30;94.60
12254;DHT22;6189;52.526;13.390;2023-04-24T12:43:55;20.40;94.00
12254;DHT22;6189;52.526;13.390;2023-04-24T12:46:41;20.50;93.30
12254;DHT22;6189;52.526;13.390;2023-04-24T12:49:30;20.50;92.10
12254;DHT22;6189;52.526;13.390;2023-04-24T12:52:15;20.30;89.40
12254;DHT22;6189;52.526;13.390;2023-04-24T12:55:01;20.30;85.40
12254;DHT22;6189;52.526;13.390;2023-04-24T12:57:47;20.50;81.10
12254;DHT22;6189;52.526;13.390;2023-04-24T13:00:33;20.20;81.10
12254;DHT22;6189;52.526;13.390;2023-04-24T13:03:19;20.20;76.10
12254;DHT22;6189;52.526;13.390;2023-04-24T13:06:08;20.30;75.40
12254;DHT22;6189;52.526;13.390;2023-04-24T13:08:53;20.40;74.40
12254;DHT22;6189;52.526;13.390;2023-04-24T13:11:42;20.30;74.40
12254;DHT22;6189;52.526;13.390;2023-04-24T13:14:28;20.20;74.70
12254;DHT22;6189;52.526;13.390;2023-04-24T13:17:13;20.10;75.10
12254;DHT22;6189;52.526;13.390;2023-04-24T13:19:59;20.20;75.30
12254;DHT22;6189;52.526;13.390;2023-04-24T13:22:46;20.50;72.00
12254;DHT22;6189;52.526;13.390;2023-04-24T13:25:35;20.70;72.40
12254;DHT22;6189;52.526;13.390;2023-04-24T13:28:23;20.90;68.80
12254;DHT22;6189;52.526;13.390;2023-04-24T13:31:08;20.90;68.50
12254;DHT22;6189;52.526;13.390;2023-04-24T13:33:54;21.00;68.70
12254;DHT22;6189;52.526;13.390;2023-04-24T13:36:40;20.70;66.90
12254;DHT22;6189;52.526;13.390;2023-04-24T13:39:27;20.60;70.40
12254;DHT22;6189;52.526;13.390;2023-04-24T13:42:13;20.60;70.20
12254;DHT22;6189;52.526;13.390;2023-04-24T13:44:58;20.30;69.70
12254;DHT22;6189;52.526;13.390;2023-04-24T13:47:44;20.40;68.70
12254;DHT22;6189;52.526;13.390;2023-04-24T13:50:30;20.50;70.90
12254;DHT22;6189;52.526;13.390;2023-04-24T13:53:15;20.40;71.30
12254;DHT22;6189;52.526;13.390;2023-04-24T13:56:03;20.20;70.50
12254;DHT22;6189;52.526;13.390;2023-04-24T13:58:49;20.20;69.70
12254;DHT22;6189;52.526;13.390;2023-04-24T14:01:34;20.20;63.90
12254;DHT22;6189;52.526;13.390;2023-04-24T14:04:20;20.20;69.10
12254;DHT22;6189;52.526;13.390;2023-04-24T14:07:06;19.90;67.80
12254;DHT22;6189;52.526;13.390;2023-04-24T14:09:52;19.80;65.40
12254;DHT22;6189;52.526;13.390;2023-04-24T14:12:39;19.70;67.20
12254;DHT22;6189;52.526;13.390;2023-04-24T14:15:25;19.60;68.50
12254;DHT22;6189;52.526;13.390;2023-04-24T14:18:11;19.60;69.10
12254;DHT22;6189;52.526;13.390;2023-04-24T14:20:57;19.70;68.70
12254;DHT22;6189;52.526;13.390;2023-04-24T14:23:43;19.70;67.00
12254;DHT22;6189;52.526;13.390;2023-04-24T14:26:28;19.80;67.60
12254;DHT22;6189;52.526;13.390;2023-04-24T14:29:16;19.90;66.00
12254;DHT22;6189;52.526;13.390;2023-04-24T14:32:01;19.90;67.50
12254;DHT22;6189;52.526;13.390;2023-04-24T14:34:47;20.00;64.40
12254;DHT22;6189;52.526;13.390;2023-04-24T14:37:33;19.80;65.90
12254;DHT22;6189;52.526;13.390;2023-04-24T14:40:19;19.80;63.40
12254;DHT22;6189;52.526;13.390;2023-04-24T14:43:05;19.90;62.10
12254;DHT22;6189;52.526;13.390;2023-04-24T14:45:53;19.80;64.60
12254;DHT22;6189;52.526;13.390;2023-04-24T14:48:38;19.70;61.80
12254;DHT22;6189;52.526;13.390;2023-04-24T14:51:24;19.50;64.40
12254;DHT22;6189;52.526;13.390;2023-04-24T14:54:12;19.40;64.70
12254;DHT22;6189;52.526;13.390;2023-04-24T14:56:58;19.30;63.90
12254;DHT22;6189;52.526;13.390;2023-04-24T14:59:45;19.30;64.70
12254;DHT22;6189;52.526;13.390;2023-04-24T15:02:32;19.30;63.60
12254;DHT22;6189;52.526;13.390;2023-04-24T15:05:18;19.40;64.20
12254;DHT22;6189;52.526;13.390;2023-04-24T15:08:04;19.40;64.40
12254;DHT22;6189;52.526;13.390;2023-04-24T15:10:50;19.30;64.60
12254;DHT22;6189;52.526;13.390;2023-04-24T15:13:35;19.20;63.70
12254;DHT22;6189;52.526;13.390;2023-04-24T15:16:21;19.30;64.50
12254;DHT22;6189;52.526;13.390;2023-04-24T15:19:08;19.30;64.20
12254;DHT22;6189;52.526;13.390;2023-04-24T15:21:54;19.40;64.80
12254;DHT22;6189;52.526;13.390;2023-04-24T15:24:40;19.30;65.50
12254;DHT22;6189;52.526;13.390;2023-04-24T15:27:25;19.40;64.90
12254;DHT22;6189;52.526;13.390;2023-04-24T15:30:12;19.40;65.20
12254;DHT22;6189;52.526;13.390;2023-04-24T15:32:59;19.40;65.30
12254;DHT22;6189;52.526;13.390;2023-04-24T15:35:46;19.30;65.10
12254;DHT22;6189;52.526;13.390;2023-04-24T15:38:32;19.10;65.70
12254;DHT22;6189;52.526;13.390;2023-04-24T15:41:18;19.00;65.10
12254;DHT22;6189;52.526;13.390;2023-04-24T15:44:04;18.80;64.80
12254;DHT22;6189;52.526;13.390;2023-04-24T15:46:50;18.70;66.50
12254;DHT22;6189;52.526;13.390;2023-04-24T15:49:38;18.60;65.50
12254;DHT22;6189;52.526;13.390;2023-04-24T15:52:25;18.70;67.00
12254;DHT22;6189;52.526;13.390;2023-04-24T15:55:11;18.60;66.70
12254;DHT22;6189;52.526;13.390;2023-04-24T15:57:57;18.70;67.80
12254;DHT22;6189;52.526;13.390;2023-04-24T16:00:42;18.60;67.80
12254;DHT22;6189;52.526;13.390;2023-04-24T16:03:28;18.70;66.50
12254;DHT22;6189;52.526;13.390;2023-04-24T16:06:14;18.70;66.40
12254;DHT22;6189;52.526;13.390;2023-04-24T16:09:01;18.70;67.80
12254;DHT22;6189;52.526;13.390;2023-04-24T16:11:47;18.40;66.90
12254;DHT22;6189;52.526;13.390;2023-04-24T16:14:33;18.20;68.10
12254;DHT22;6189;52.526;13.390;2023-04-24T16:17:19;18.10;67.70
12254;DHT22;6189;52.526;13.390;2023-04-24T16:20:06;18.30;68.20
12254;DHT22;6189;52.526;13.390;2023-04-24T16:22:51;18.30;69.50
12254;DHT22;6189;52.526;13.390;2023-04-24T16:25:39;18.50;68.10
12254;DHT22;6189;52.526;13.390;2023-04-24T16:28:25;18.40;67.70
12254;DHT22;6189;52.526;13.390;2023-04-24T16:31:11;18.40;66.80
12254;DHT22;6189;52.526;13.390;2023-04-24T16:33:57;18.30;67.10
12254;DHT22;6189;52.526;13.390;2023-04-24T16:36:43;18.40;66.30
12254;DHT22;6189;52.526;13.390;2023-04-24T16:39:29;18.20;67.40
12254;DHT22;6189;52.526;13.390;2023-04-24T16:42:16;18.20;68.50
12254;DHT22;6189;52.526;13.390;2023-04-24T16:45:02;18.00;69.30
12254;DHT22;6189;52.526;13.390;2023-04-24T16:47:47;18.00;70.40
12254;DHT22;6189;52.526;13.390;2023-04-24T16:50:35;17.90;70.10
12254;DHT22;6189;52.526;13.390;2023-04-24T16:53:20;17.60;72.50
12254;DHT22;6189;52.526;13.390;2023-04-24T16:56:06;17.50;74.80
12254;DHT22;6189;52.526;13.390;2023-04-24T16:58:57;17.30;75.80
12254;DHT22;6189;52.526;13.390;2023-04-24T17:01:42;17.20;76.10
12254;DHT22;6189;52.526;13.390;2023-04-24T17:04:28;17.10;76.40
12254;DHT22;6189;52.526;13.390;2023-04-24T17:07:17;16.90;77.30
12254;DHT22;6189;52.526;13.390;2023-04-24T17:10:03;16.90;78.10
12254;DHT22;6189;52.526;13.390;2023-04-24T17:12:49;16.80;79.00
12254;DHT22;6189;52.526;13.390;2023-04-24T17:15:36;16.70;80.30
12254;DHT22;6189;52.526;13.390;2023-04-24T17:18:23;16.80;81.20
12254;DHT22;6189;52.526;13.390;2023-04-24T17:21:14;16.80;81.60
12254;DHT22;6189;52.526;13.390;2023-04-24T17:24:00;16.70;82.20
12254;DHT22;6189;52.526;13.390;2023-04-24T17:27:07;16.70;83.20
12254;DHT22;6189;52.526;13.390;2023-04-24T17:30:08;16.50;84.30
12254;DHT22;6189;52.526;13.390;2023-04-24T17:32:58;16.70;84.50